sensor_id;sensor_type;location;lat;lon;timestamp;temperature;humidity
46319;DHT22;32042;50.916;2.926;2023-12-04T00:00:36;2.30;99.90
46319;DHT22;32042;50.916;2.926;2023-12-04T00:03:02;2.30;99.90
46319;DHT22;32042;50.916;2.926;2023-12-04T00:05:27;2.30;99.90
46319;DHT22;32042;50.916;2.926;2023-12-04T00:07:53;2.30;99.90
46319;DHT22;32042;50.916;2.926;2023-12-04T00:10:19;2.30;99.90
46319;DHT22;32042;50.916;2.926;2023-12-04T00:12:44;2.30;99.90
46319;DHT22;32042;50.916;2.926;2023-12-04T00:15:10;2.20;99.90
46319;DHT22;32042;50.916;2.926;2023-12-04T00:17:36;2.20;99.90
46319;DHT22;32042;50.916;2.926;2023-12-04T00:20:06;2.30;99.90
46319;DHT22;32042;50.916;2.926;2023-12-04T00:22:32;2.30;99.90
46319;DHT22;32042;50.916;2.926;2023-12-04T00:24:59;2.30;99.90
46319;DHT22;32042;50.916;2.926;2023-12-04T00:27:24;2.20;99.90
46319;DHT22;32042;50.916;2.926;2023-12-04T00:29:53;2.20;99.90
46319;DHT22;32042;50.916;2.926;2023-12-04T00:32:19;2.20;99.90
46319;DHT22;32042;50.916;2.926;2023-12-04T00:34:45;2.20;99.90
46319;DHT22;32042;50.916;2.926;2023-12-04T00:37:10;2.20;99.90
46319;DHT22;32042;50.916;2.926;2023-12-04T00:39:36;2.20;99.90
46319;DHT22;32042;50.916;2.926;2023-12-04T00:42:02;2.20;99.90
46319;DHT22;32042;50.916;2.926;2023-12-04T00:44:28;2.20;99.90
46319;DHT22;32042;50.916;2.926;2023-12-04T00:46:54;2.20;99.90
46319;DHT22;32042;50.916;2.926;2023-12-04T00:49:19;2.20;99.90
46319;DHT22;32042;50.916;2.926;2023-12-04T00:51:45;2.20;99.90
46319;DHT22;32042;50.916;2.926;2023-12-04T00:54:11;2.20;99.90
46319;DHT22;32042;50.916;2.926;2023-12-04T00:56:40;2.20;99.90
46319;DHT22;32042;50.916;2.926;2023-12-04T00:59:09;2.20;99.90
46319;DHT22;32042;50.916;2.926;2023-12-04T01:01:38;2.20;99.90
46319;DHT22;32042;50.916;2.926;2023-12-04T01:04:04;2.20;99.90
46319;DHT22;32042;50.916;2.926;2023-12-04T01:06:29;2.20;99.90
46319;DHT22;32042;50.916;2.926;2023-12-04T01:08:56;2.20;99.90
46319;DHT22;32042;50.916;2.926;2023-12-04T01:11:22;2.20;99.90
46319;DHT22;32042;50.916;2.926;2023-12-04T01:13:48;2.20;99.90
46319;DHT22;32042;50.916;2.926;2023-12-04T01:16:15;2.20;99.90
46319;DHT22;32042;50.916;2.926;2023-12-04T01:18:42;2.20;99.90
46319;DHT22;32042;50.916;2.926;2023-12-04T01:21:09;2.20;99.90
46319;DHT22;32042;50.916;2.926;2023-12-04T01:23:35;2.20;99.90
46319;DHT22;32042;50.916;2.926;2023-12-04T01:26:04;2.20;99.90
46319;DHT22;32042;50.916;2.926;2023-12-04T01:28:30;2.20;99.90
46319;DHT22;32042;50.916;2.926;2023-12-04T01:30:56;2.20;99.90
46319;DHT22;32042;50.916;2.926;2023-12-04T01:33:22;2.20;99.90
46319;DHT22;32042;50.916;2.926;2023-12-04T01:35:47;2.20;99.90
46319;DHT22;32042;50.916;2.926;2023-12-04T01:38:13;2.20;99.90
46319;DHT22;32042;50.916;2.926;2023-12-04T01:40:39;2.20;99.90
46319;DHT22;32042;50.916;2.926;2023-12-04T01:43:04;2.20;99.90
46319;DHT22;32042;50.916;2.926;2023-12-04T01:45:31;2.20;99.90
46319;DHT22;32042;50.916;2.926;2023-12-04T01:47:57;2.20;99.90
46319;DHT22;32042;50.916;2.926;2023-12-04T01:50:24;2.20;99.90
46319;DHT22;32042;50.916;2.926;2023-12-04T01:52:51;2.20;99.90
46319;DHT22;32042;50.916;2.926;2023-12-04T01:55:17;2.30;99.90
46319;DHT22;32042;50.916;2.926;2023-12-04T01:57:43;2.30;99.90
46319;DHT22;32042;50.916;2.926;2023-12-04T02:00:10;2.30;99.90
46319;DHT22;32042;50.916;2.926;2023-12-04T02:02:41;2.30;99.90
46319;DHT22;32042;50.916;2.926;2023-12-04T02:05:11;2.30;99.90
46319;DHT22;32042;50.916;2.926;2023-12-04T02:07:37;2.30;99.90
46319;DHT22;32042;50.916;2.926;2023-12-04T02:10:03;2.30;99.90
46319;DHT22;32042;50.916;2.926;2023-12-04T02:12:29;2.30;99.90
46319;DHT22;32042;50.916;2.926;2023-12-04T02:14:56;2.30;99.90
46319;DHT22;32042;50.916;2.926;2023-12-04T02:17:22;2.30;99.90
46319;DHT22;32042;50.916;2.926;2023-12-04T02:19:49;2.30;99.90
46319;DHT22;32042;50.916;2.926;2023-12-04T02:22:14;2.30;99.90
46319;DHT22;32042;50.916;2.926;2023-12-04T02:24:40;2.30;99.90
46319;DHT22;32042;50.916;2.926;2023-12-04T02:27:23;2.30;99.90
46319;DHT22;32042;50.916;2.926;2023-12-04T02:29:59;2.30;99.90
46319;DHT22;32042;50.916;2.926;2023-12-04T02:32:30;2.40;99.90
46319;DHT22;32042;50.916;2.926;2023-12-04T02:34:59;2.40;99.90
46319;DHT22;32042;50.916;2.926;2023-12-04T02:37:29;2.40;99.90
46319;DHT22;32042;50.916;2.926;2023-12-04T02:39:56;2.40;99.90
46319;DHT22;32042;50.916;2.926;2023-12-04T02:42:24;2.40;99.90
46319;DHT22;32042;50.916;2.926;2023-12-04T02:44:52;2.40;99.90
46319;DHT22;32042;50.916;2.926;2023-12-04T02:47:19;2.40;99.90
46319;DHT22;32042;50.916;2.926;2023-12-04T02:49:46;2.40;99.90
46319;DHT22;32042;50.916;2.926;2023-12-04T02:52:12;2.40;99.90
46319;DHT22;32042;50.916;2.926;2023-12-04T02:54:38;2.40;99.90
46319;DHT22;32042;50.916;2.926;2023-12-04T02:57:04;2.40;99.90
46319;DHT22;32042;50.916;2.926;2023-12-04T02:59:29;2.40;99.90
46319;DHT22;32042;50.916;2.926;2023-12-04T03:01:55;2.40;99.90
46319;DHT22;32042;50.916;2.926;2023-12-04T03:04:21;2.40;99.90
46319;DHT22;32042;50.916;2.926;2023-12-04T03:06:47;2.40;99.90
46319;DHT22;32042;50.916;2.926;2023-12-04T03:09:13;2.40;99.90
46319;DHT22;32042;50.916;2.926;2023-12-04T03:11:42;2.40;99.90
46319;DHT22;32042;50.916;2.926;2023-12-04T03:14:07;2.40;99.90
46319;DHT22;32042;50.916;2.926;2023-12-04T03:16:33;2.40;99.90
46319;DHT22;32042;50.916;2.926;2023-12-04T03:18:59;2.50;99.90
46319;DHT22;32042;50.916;2.926;2023-12-04T03:21:25;2.50;99.90
46319;DHT22;32042;50.916;2.926;2023-12-04T03:23:51;2.50;99.90
46319;DHT22;32042;50.916;2.926;2023-12-04T03:26:17;2.50;99.90
46319;DHT22;32042;50.916;2.926;2023-12-04T03:28:42;2.50;99.90
46319;DHT22;32042;50.916;2.926;2023-12-04T03:31:08;2.50;99.90
46319;DHT22;32042;50.916;2.926;2023-12-04T03:33:34;2.50;99.90
46319;DHT22;32042;50.916;2.926;2023-12-04T03:36:00;2.50;99.90
46319;DHT22;32042;50.916;2.926;2023-12-04T03:38:26;2.50;99.90
46319;DHT22;32042;50.916;2.926;2023-12-04T03:40:51;2.50;99.90
46319;DHT22;32042;50.916;2.926;2023-12-04T03:43:17;2.50;99.90
46319;DHT22;32042;50.916;2.926;2023-12-04T03:45:43;2.50;99.90
46319;DHT22;32042;50.916;2.926;2023-12-04T03:48:09;2.60;99.90
46319;DHT22;32042;50.916;2.926;2023-12-04T03:50:35;2.60;99.90
46319;DHT22;32042;50.916;2.926;2023-12-04T03:53:00;2.60;99.90
46319;DHT22;32042;50.916;2.926;2023-12-04T03:55:26;2.60;99.90
46319;DHT22;32042;50.916;2.926;2023-12-04T03:57:53;2.60;99.90
46319;DHT22;32042;50.916;2.926;2023-12-04T04:00:19;2.60;99.90
46319;DHT22;32042;50.916;2.926;2023-12-04T04:02:45;2.60;99.90
46319;DHT22;32042;50.916;2.926;2023-12-04T04:05:11;2.60;99.90
46319;DHT22;32042;50.916;2.926;2023-12-04T04:07:36;2.60;99.90
46319;DHT22;32042;50.916;2.926;2023-12-04T04:10:02;2.60;99.90
46319;DHT22;32042;50.916;2.926;2023-12-04T04:12:30;2.60;99.90
46319;DHT22;32042;50.916;2.926;2023-12-04T04:14:56;2.60;99.90
46319;DHT22;32042;50.916;2.926;2023-12-04T04:17:22;2.70;99.90
46319;DHT22;32042;50.916;2.926;2023-12-04T04:19:51;2.70;99.90
46319;DHT22;32042;50.916;2.926;2023-12-04T04:22:16;2.70;99.90
46319;DHT22;32042;50.916;2.926;2023-12-04T04:24:42;2.70;99.90
46319;DHT22;32042;50.916;2.926;2023-12-04T04:27:08;2.70;99.90
46319;DHT22;32042;50.916;2.926;2023-12-04T04:29:34;2.70;99.90
46319;DHT22;32042;50.916;2.926;2023-12-04T04:32:00;2.70;99.90
46319;DHT22;32042;50.916;2.926;2023-12-04T04:34:25;2.70;99.90
46319;DHT22;32042;50.916;2.926;2023-12-04T04:36:51;2.70;99.90
46319;DHT22;32042;50.916;2.926;2023-12-04T04:39:17;2.70;99.90
46319;DHT22;32042;50.916;2.926;2023-12-04T04:41:44;2.70;99.90
46319;DHT22;32042;50.916;2.926;2023-12-04T04:44:09;2.70;99.90
46319;DHT22;32042;50.916;2.926;2023-12-04T04:46:35;2.70;99.90
46319;DHT22;32042;50.916;2.926;2023-12-04T04:49:01;2.70;99.90
46319;DHT22;32042;50.916;2.926;2023-12-04T04:51:27;2.70;99.90
46319;DHT22;32042;50.916;2.926;2023-12-04T04:53:54;2.70;99.90
46319;DHT22;32042;50.916;2.926;2023-12-04T04:56:21;2.70;99.90
46319;DHT22;32042;50.916;2.926;2023-12-04T04:58:46;2.70;99.90
46319;DHT22;32042;50.916;2.926;2023-12-04T05:01:12;2.70;99.90
46319;DHT22;32042;50.916;2.926;2023-12-04T05:03:38;2.70;99.90
46319;DHT22;32042;50.916;2.926;2023-12-04T05:06:04;2.70;99.90
46319;DHT22;32042;50.916;2.926;2023-12-04T05:08:29;2.70;99.90
46319;DHT22;32042;50.916;2.926;2023-12-04T05:10:55;2.60;99.90
46319;DHT22;32042;50.916;2.926;2023-12-04T05:13:21;2.60;99.90
46319;DHT22;32042;50.916;2.926;2023-12-04T05:15:46;2.60;99.90
46319;DHT22;32042;50.916;2.926;2023-12-04T05:18:12;2.60;99.90
46319;DHT22;32042;50.916;2.926;2023-12-04T05:20:38;2.60;99.90
46319;DHT22;32042;50.916;2.926;2023-12-04T05:23:04;2.60;99.90
46319;DHT22;32042;50.916;2.926;2023-12-04T05:25:29;2.60;99.90
46319;DHT22;32042;50.916;2.926;2023-12-04T05:27:55;2.60;99.90
46319;DHT22;32042;50.916;2.926;2023-12-04T05:30:21;2.50;99.90
46319;DHT22;32042;50.916;2.926;2023-12-04T05:32:46;2.50;99.90
46319;DHT22;32042;50.916;2.926;2023-12-04T05:35:12;2.50;99.90
46319;DHT22;32042;50.916;2.926;2023-12-04T05:37:38;2.50;99.90
46319;DHT22;32042;50.916;2.926;2023-12-04T05:40:04;2.50;99.90
46319;DHT22;32042;50.916;2.926;2023-12-04T05:42:30;2.40;99.90
46319;DHT22;32042;50.916;2.926;2023-12-04T05:44:56;2.50;99.90
46319;DHT22;32042;50.916;2.926;2023-12-04T05:47:22;2.50;99.90
46319;DHT22;32042;50.916;2.926;2023-12-04T05:49:48;2.50;99.90
46319;DHT22;32042;50.916;2.926;2023-12-04T05:52:14;2.50;99.90
46319;DHT22;32042;50.916;2.926;2023-12-04T05:54:39;2.50;99.90
46319;DHT22;32042;50.916;2.926;2023-12-04T05:57:05;2.50;99.90
46319;DHT22;32042;50.916;2.926;2023-12-04T05:59:31;2.50;99.90
46319;DHT22;32042;50.916;2.926;2023-12-04T06:01:57;2.50;99.90
46319;DHT22;32042;50.916;2.926;2023-12-04T06:04:22;2.50;99.90
46319;DHT22;32042;50.916;2.926;2023-12-04T06:06:48;2.60;99.90
46319;DHT22;32042;50.916;2.926;2023-12-04T06:09:14;2.60;99.90
46319;DHT22;32042;50.916;2.926;2023-12-04T06:11:42;2.60;99.90
46319;DHT22;32042;50.916;2.926;2023-12-04T06:14:08;2.60;99.90
46319;DHT22;32042;50.916;2.926;2023-12-04T06:16:34;2.60;99.90
46319;DHT22;32042;50.916;2.926;2023-12-04T06:18:59;2.60;99.90
46319;DHT22;32042;50.916;2.926;2023-12-04T06:21:25;2.60;99.90
46319;DHT22;32042;50.916;2.926;2023-12-04T06:23:51;2.60;99.90
46319;DHT22;32042;50.916;2.926;2023-12-04T06:26:17;2.60;99.90
46319;DHT22;32042;50.916;2.926;2023-12-04T06:28:45;2.60;99.90
46319;DHT22;32042;50.916;2.926;2023-12-04T06:31:11;2.60;99.90
46319;DHT22;32042;50.916;2.926;2023-12-04T06:33:37;2.60;99.90
46319;DHT22;32042;50.916;2.926;2023-12-04T06:36:04;2.60;99.90
46319;DHT22;32042;50.916;2.926;2023-12-04T06:38:32;2.60;99.90
46319;DHT22;32042;50.916;2.926;2023-12-04T06:41:01;2.50;99.90
46319;DHT22;32042;50.916;2.926;2023-12-04T06:43:27;2.50;99.90
46319;DHT22;32042;50.916;2.926;2023-12-04T06:45:53;2.50;99.90
46319;DHT22;32042;50.916;2.926;2023-12-04T06:48:22;2.50;99.90
46319;DHT22;32042;50.916;2.926;2023-12-04T06:50:48;2.40;99.90
46319;DHT22;32042;50.916;2.926;2023-12-04T06:53:14;2.40;99.90
46319;DHT22;32042;50.916;2.926;2023-12-04T06:55:40;2.40;99.90
46319;DHT22;32042;50.916;2.926;2023-12-04T06:58:05;2.40;99.90
46319;DHT22;32042;50.916;2.926;2023-12-04T07:00:31;2.40;99.90
46319;DHT22;32042;50.916;2.926;2023-12-04T07:02:57;2.40;99.90
46319;DHT22;32042;50.916;2.926;2023-12-04T07:05:23;2.40;99.90
46319;DHT22;32042;50.916;2.926;2023-12-04T07:07:49;2.40;99.90
46319;DHT22;32042;50.916;2.926;2023-12-04T07:10:16;2.40;99.90
46319;DHT22;32042;50.916;2.926;2023-12-04T07:12:42;2.40;99.90
46319;DHT22;32042;50.916;2.926;2023-12-04T07:15:08;2.40;99.90
46319;DHT22;32042;50.916;2.926;2023-12-04T07:17:35;2.40;99.90
46319;DHT22;32042;50.916;2.926;2023-12-04T07:20:01;2.40;99.90
46319;DHT22;32042;50.916;2.926;2023-12-04T07:22:27;2.40;99.90
46319;DHT22;32042;50.916;2.926;2023-12-04T07:24:53;2.40;99.90
46319;DHT22;32042;50.916;2.926;2023-12-04T07:27:18;2.40;99.90
46319;DHT22;32042;50.916;2.926;2023-12-04T07:29:44;2.40;99.90
46319;DHT22;32042;50.916;2.926;2023-12-04T07:32:10;2.40;99.90
46319;DHT22;32042;50.916;2.926;2023-12-04T07:34:36;2.40;99.90
46319;DHT22;32042;50.916;2.926;2023-12-04T07:37:02;2.40;99.90
46319;DHT22;32042;50.916;2.926;2023-12-04T07:39:28;2.40;99.90
46319;DHT22;32042;50.916;2.926;2023-12-04T07:41:54;2.40;99.90
46319;DHT22;32042;50.916;2.926;2023-12-04T07:44:20;2.40;99.90
46319;DHT22;32042;50.916;2.926;2023-12-04T07:46:45;2.40;99.90
46319;DHT22;32042;50.916;2.926;2023-12-04T07:49:12;2.40;99.90
46319;DHT22;32042;50.916;2.926;2023-12-04T07:51:37;2.40;99.90
46319;DHT22;32042;50.916;2.926;2023-12-04T07:54:04;2.40;99.90
46319;DHT22;32042;50.916;2.926;2023-12-04T07:56:29;2.40;99.90
46319;DHT22;32042;50.916;2.926;2023-12-04T07:58:55;2.40;99.90
46319;DHT22;32042;50.916;2.926;2023-12-04T08:01:23;2.50;99.90
46319;DHT22;32042;50.916;2.926;2023-12-04T08:03:49;2.50;99.90
46319;DHT22;32042;50.916;2.926;2023-12-04T08:06:15;2.50;99.90
46319;DHT22;32042;50.916;2.926;2023-12-04T08:08:43;2.50;99.90
46319;DHT22;32042;50.916;2.926;2023-12-04T08:11:12;2.50;99.90
46319;DHT22;32042;50.916;2.926;2023-12-04T08:13:39;2.50;99.90
46319;DHT22;32042;50.916;2.926;2023-12-04T08:16:05;2.50;99.90
46319;DHT22;32042;50.916;2.926;2023-12-04T08:18:30;2.50;99.90
46319;DHT22;32042;50.916;2.926;2023-12-04T08:20:59;2.50;99.90
46319;DHT22;32042;50.916;2.926;2023-12-04T08:23:25;2.50;99.90
46319;DHT22;32042;50.916;2.926;2023-12-04T08:25:51;2.60;99.90
46319;DHT22;32042;50.916;2.926;2023-12-04T08:28:17;2.60;99.90
46319;DHT22;32042;50.916;2.926;2023-12-04T08:30:42;2.60;99.90
46319;DHT22;32042;50.916;2.926;2023-12-04T08:33:08;2.70;99.90
46319;DHT22;32042;50.916;2.926;2023-12-04T08:35:34;2.70;99.90
46319;DHT22;32042;50.916;2.926;2023-12-04T08:38:00;2.70;99.90
46319;DHT22;32042;50.916;2.926;2023-12-04T08:40:26;2.70;99.90
46319;DHT22;32042;50.916;2.926;2023-12-04T08:42:51;2.70;99.90
46319;DHT22;32042;50.916;2.926;2023-12-04T08:45:17;2.80;99.90
46319;DHT22;32042;50.916;2.926;2023-12-04T08:47:44;2.80;99.90
46319;DHT22;32042;50.916;2.926;2023-12-04T08:50:10;2.80;99.90
46319;DHT22;32042;50.916;2.926;2023-12-04T08:52:36;2.80;99.90
46319;DHT22;32042;50.916;2.926;2023-12-04T08:55:02;2.80;99.90
46319;DHT22;32042;50.916;2.926;2023-12-04T08:57:28;2.90;99.90
46319;DHT22;32042;50.916;2.926;2023-12-04T08:59:53;2.90;99.90
46319;DHT22;32042;50.916;2.926;2023-12-04T09:02:19;2.90;99.90
46319;DHT22;32042;50.916;2.926;2023-12-04T09:04:45;2.90;99.90
46319;DHT22;32042;50.916;2.926;2023-12-04T09:07:11;3.00;99.90
46319;DHT22;32042;50.916;2.926;2023-12-04T09:09:36;2.90;99.90
46319;DHT22;32042;50.916;2.926;2023-12-04T09:12:02;3.00;99.90
46319;DHT22;32042;50.916;2.926;2023-12-04T09:14:28;3.00;99.90
46319;DHT22;32042;50.916;2.926;2023-12-04T09:16:54;3.00;99.90
46319;DHT22;32042;50.916;2.926;2023-12-04T09:19:20;3.00;99.90
46319;DHT22;32042;50.916;2.926;2023-12-04T09:21:45;3.00;99.90
46319;DHT22;32042;50.916;2.926;2023-12-04T09:24:12;3.00;99.90
46319;DHT22;32042;50.916;2.926;2023-12-04T09:26:39;3.00;99.90
46319;DHT22;32042;50.916;2.926;2023-12-04T09:29:05;3.00;99.90
46319;DHT22;32042;50.916;2.926;2023-12-04T09:31:30;3.00;99.90
46319;DHT22;32042;50.916;2.926;2023-12-04T09:33:56;3.00;99.90
46319;DHT22;32042;50.916;2.926;2023-12-04T09:36:22;3.00;99.90
46319;DHT22;32042;50.916;2.926;2023-12-04T09:38:48;3.00;99.90
46319;DHT22;32042;50.916;2.926;2023-12-04T09:41:16;3.00;99.90
46319;DHT22;32042;50.916;2.926;2023-12-04T09:43:44;3.10;99.90
46319;DHT22;32042;50.916;2.926;2023-12-04T09:46:10;3.10;99.90
46319;DHT22;32042;50.916;2.926;2023-12-04T09:48:37;3.10;99.90
46319;DHT22;32042;50.916;2.926;2023-12-04T09:51:04;3.10;99.90
46319;DHT22;32042;50.916;2.926;2023-12-04T09:53:30;3.10;99.90
46319;DHT22;32042;50.916;2.926;2023-12-04T09:55:59;3.10;99.90
46319;DHT22;32042;50.916;2.926;2023-12-04T09:58:28;3.20;99.90
46319;DHT22;32042;50.916;2.926;2023-12-04T10:00:59;3.20;99.90
46319;DHT22;32042;50.916;2.926;2023-12-04T10:03:26;3.20;99.90
46319;DHT22;32042;50.916;2.926;2023-12-04T10:05:54;3.20;99.90
46319;DHT22;32042;50.916;2.926;2023-12-04T10:08:20;3.20;99.90
46319;DHT22;32042;50.916;2.926;2023-12-04T10:10:47;3.20;99.90
46319;DHT22;32042;50.916;2.926;2023-12-04T10:13:13;3.20;99.90
46319;DHT22;32042;50.916;2.926;2023-12-04T10:15:56;3.20;99.90
46319;DHT22;32042;50.916;2.926;2023-12-04T10:18:32;3.20;99.90
46319;DHT22;32042;50.916;2.926;2023-12-04T10:20:58;3.20;99.90
46319;DHT22;32042;50.916;2.926;2023-12-04T10:23:43;3.20;99.90
46319;DHT22;32042;50.916;2.926;2023-12-04T10:26:09;3.20;99.90
46319;DHT22;32042;50.916;2.926;2023-12-04T10:28:36;3.30;99.90
46319;DHT22;32042;50.916;2.926;2023-12-04T10:31:01;3.30;99.90
46319;DHT22;32042;50.916;2.926;2023-12-04T10:33:29;3.30;99.90
46319;DHT22;32042;50.916;2.926;2023-12-04T10:35:55;3.40;99.90
46319;DHT22;32042;50.916;2.926;2023-12-04T10:38:21;3.40;99.90
46319;DHT22;32042;50.916;2.926;2023-12-04T10:40:47;3.50;99.90
46319;DHT22;32042;50.916;2.926;2023-12-04T10:43:19;3.50;99.90
46319;DHT22;32042;50.916;2.926;2023-12-04T10:45:46;3.60;99.90
46319;DHT22;32042;50.916;2.926;2023-12-04T10:48:13;3.60;99.90
46319;DHT22;32042;50.916;2.926;2023-12-04T10:50:46;3.60;99.90
46319;DHT22;32042;50.916;2.926;2023-12-04T10:53:13;3.60;99.90
46319;DHT22;32042;50.916;2.926;2023-12-04T10:55:40;3.70;99.90
46319;DHT22;32042;50.916;2.926;2023-12-04T11:00:47;3.60;99.90
46319;DHT22;32042;50.916;2.926;2023-12-04T11:03:36;3.60;99.90
46319;DHT22;32042;50.916;2.926;2023-12-04T11:06:06;3.70;99.90
46319;DHT22;32042;50.916;2.926;2023-12-04T11:08:35;3.70;99.90
46319;DHT22;32042;50.916;2.926;2023-12-04T11:11:06;3.70;99.90
46319;DHT22;32042;50.916;2.926;2023-12-04T11:13:35;3.70;99.90
46319;DHT22;32042;50.916;2.926;2023-12-04T11:18:37;3.80;99.90
46319;DHT22;32042;50.916;2.926;2023-12-04T11:21:07;3.80;99.90
46319;DHT22;32042;50.916;2.926;2023-12-04T11:23:35;3.80;99.90
46319;DHT22;32042;50.916;2.926;2023-12-04T11:26:02;3.90;99.90
46319;DHT22;32042;50.916;2.926;2023-12-04T11:28:30;3.90;99.90
46319;DHT22;32042;50.916;2.926;2023-12-04T11:30:58;3.90;99.90
46319;DHT22;32042;50.916;2.926;2023-12-04T11:33:24;4.00;99.90
46319;DHT22;32042;50.916;2.926;2023-12-04T11:35:50;4.00;99.90
46319;DHT22;32042;50.916;2.926;2023-12-04T11:38:17;4.00;99.90
46319;DHT22;32042;50.916;2.926;2023-12-04T11:40:43;4.10;99.90
46319;DHT22;32042;50.916;2.926;2023-12-04T11:43:28;4.10;99.90
46319;DHT22;32042;50.916;2.926;2023-12-04T11:46:24;4.10;99.90
46319;DHT22;32042;50.916;2.926;2023-12-04T11:48:53;4.10;99.90
46319;DHT22;32042;50.916;2.926;2023-12-04T11:54:15;4.20;99.90
46319;DHT22;32042;50.916;2.926;2023-12-04T11:59:40;4.20;99.90
46319;DHT22;32042;50.916;2.926;2023-12-04T12:02:08;4.20;99.90
46319;DHT22;32042;50.916;2.926;2023-12-04T12:04:34;4.20;99.90
46319;DHT22;32042;50.916;2.926;2023-12-04T12:07:01;4.20;99.90
46319;DHT22;32042;50.916;2.926;2023-12-04T12:09:34;4.20;99.90
46319;DHT22;32042;50.916;2.926;2023-12-04T12:12:01;4.20;99.90
46319;DHT22;32042;50.916;2.926;2023-12-04T12:14:28;4.20;99.90
46319;DHT22;32042;50.916;2.926;2023-12-04T12:16:54;4.20;99.90
46319;DHT22;32042;50.916;2.926;2023-12-04T12:19:21;4.20;99.90
46319;DHT22;32042;50.916;2.926;2023-12-04T12:21:48;4.20;99.90
46319;DHT22;32042;50.916;2.926;2023-12-04T12:24:15;4.20;99.90
46319;DHT22;32042;50.916;2.926;2023-12-04T12:26:41;4.30;99.90
46319;DHT22;32042;50.916;2.926;2023-12-04T12:29:08;4.30;99.90
46319;DHT22;32042;50.916;2.926;2023-12-04T12:31:35;4.30;99.90
46319;DHT22;32042;50.916;2.926;2023-12-04T12:34:00;4.30;99.90
46319;DHT22;32042;50.916;2.926;2023-12-04T12:36:26;4.30;99.90
46319;DHT22;32042;50.916;2.926;2023-12-04T12:38:53;4.30;99.90
46319;DHT22;32042;50.916;2.926;2023-12-04T12:41:19;4.30;99.90
46319;DHT22;32042;50.916;2.926;2023-12-04T12:43:45;4.30;99.90
46319;DHT22;32042;50.916;2.926;2023-12-04T12:46:12;4.30;99.90
46319;DHT22;32042;50.916;2.926;2023-12-04T12:48:39;4.30;99.90
46319;DHT22;32042;50.916;2.926;2023-12-04T12:51:05;4.40;99.90
46319;DHT22;32042;50.916;2.926;2023-12-04T12:53:36;4.30;99.90
46319;DHT22;32042;50.916;2.926;2023-12-04T12:56:03;4.30;99.90
46319;DHT22;32042;50.916;2.926;2023-12-04T12:58:29;4.30;99.90
46319;DHT22;32042;50.916;2.926;2023-12-04T13:00:55;4.40;99.90
46319;DHT22;32042;50.916;2.926;2023-12-04T13:03:21;4.40;99.90
46319;DHT22;32042;50.916;2.926;2023-12-04T13:05:47;4.40;99.90
46319;DHT22;32042;50.916;2.926;2023-12-04T13:08:13;4.40;99.90
46319;DHT22;32042;50.916;2.926;2023-12-04T13:10:40;4.40;99.90
46319;DHT22;32042;50.916;2.926;2023-12-04T13:13:11;4.40;99.90
46319;DHT22;32042;50.916;2.926;2023-12-04T13:15:36;4.40;99.90
46319;DHT22;32042;50.916;2.926;2023-12-04T13:18:03;4.40;99.90
46319;DHT22;32042;50.916;2.926;2023-12-04T13:20:29;4.40;99.90
46319;DHT22;32042;50.916;2.926;2023-12-04T13:22:55;4.40;99.90
46319;DHT22;32042;50.916;2.926;2023-12-04T13:25:20;4.40;99.90
46319;DHT22;32042;50.916;2.926;2023-12-04T13:27:46;4.40;99.90
46319;DHT22;32042;50.916;2.926;2023-12-04T13:30:12;4.40;99.90
46319;DHT22;32042;50.916;2.926;2023-12-04T13:32:38;4.50;99.90
46319;DHT22;32042;50.916;2.926;2023-12-04T13:35:05;4.50;99.90
46319;DHT22;32042;50.916;2.926;2023-12-04T13:37:32;4.50;99.90
46319;DHT22;32042;50.916;2.926;2023-12-04T13:39:58;4.50;99.90
46319;DHT22;32042;50.916;2.926;2023-12-04T13:42:27;4.50;99.90
46319;DHT22;32042;50.916;2.926;2023-12-04T13:45:11;4.50;99.90
46319;DHT22;32042;50.916;2.926;2023-12-04T13:47:40;4.50;99.90
46319;DHT22;32042;50.916;2.926;2023-12-04T13:50:07;4.60;99.90
46319;DHT22;32042;50.916;2.926;2023-12-04T13:52:36;4.60;99.90
46319;DHT22;32042;50.916;2.926;2023-12-04T13:55:02;4.60;99.90
46319;DHT22;32042;50.916;2.926;2023-12-04T13:57:39;4.60;99.90
46319;DHT22;32042;50.916;2.926;2023-12-04T14:00:20;4.60;99.90
46319;DHT22;32042;50.916;2.926;2023-12-04T14:02:45;4.60;99.90
46319;DHT22;32042;50.916;2.926;2023-12-04T14:05:11;4.60;99.90
46319;DHT22;32042;50.916;2.926;2023-12-04T14:07:41;4.60;99.90
46319;DHT22;32042;50.916;2.926;2023-12-04T14:10:09;4.70;99.90
46319;DHT22;32042;50.916;2.926;2023-12-04T14:12:35;4.60;99.90
46319;DHT22;32042;50.916;2.926;2023-12-04T14:15:02;4.70;99.90
46319;DHT22;32042;50.916;2.926;2023-12-04T14:17:28;4.70;99.90
46319;DHT22;32042;50.916;2.926;2023-12-04T14:19:54;4.70;99.90
46319;DHT22;32042;50.916;2.926;2023-12-04T14:22:20;4.70;99.90
46319;DHT22;32042;50.916;2.926;2023-12-04T14:24:46;4.70;99.90
46319;DHT22;32042;50.916;2.926;2023-12-04T14:27:11;4.70;99.90
46319;DHT22;32042;50.916;2.926;2023-12-04T14:29:38;4.70;99.90
46319;DHT22;32042;50.916;2.926;2023-12-04T14:32:06;4.70;99.90
46319;DHT22;32042;50.916;2.926;2023-12-04T14:34:31;4.70;99.90
46319;DHT22;32042;50.916;2.926;2023-12-04T14:36:58;4.70;99.90
46319;DHT22;32042;50.916;2.926;2023-12-04T14:39:24;4.70;99.90
46319;DHT22;32042;50.916;2.926;2023-12-04T14:41:50;4.70;99.90
46319;DHT22;32042;50.916;2.926;2023-12-04T14:44:16;4.80;99.90
46319;DHT22;32042;50.916;2.926;2023-12-04T14:46:42;4.80;99.90
46319;DHT22;32042;50.916;2.926;2023-12-04T14:49:08;4.80;99.90
46319;DHT22;32042;50.916;2.926;2023-12-04T14:51:33;4.80;99.90
46319;DHT22;32042;50.916;2.926;2023-12-04T14:53:59;4.80;99.90
46319;DHT22;32042;50.916;2.926;2023-12-04T14:56:45;4.80;99.90
46319;DHT22;32042;50.916;2.926;2023-12-04T14:59:29;4.80;99.90
46319;DHT22;32042;50.916;2.926;2023-12-04T15:02:07;4.80;99.90
46319;DHT22;32042;50.916;2.926;2023-12-04T15:04:51;4.80;99.90
46319;DHT22;32042;50.916;2.926;2023-12-04T15:07:17;4.80;99.90
46319;DHT22;32042;50.916;2.926;2023-12-04T15:10:11;4.80;99.90
46319;DHT22;32042;50.916;2.926;2023-12-04T15:12:43;4.80;99.90
46319;DHT22;32042;50.916;2.926;2023-12-04T15:15:27;4.80;99.90
46319;DHT22;32042;50.916;2.926;2023-12-04T15:18:11;4.80;99.90
46319;DHT22;32042;50.916;2.926;2023-12-04T15:21:12;4.80;99.90
46319;DHT22;32042;50.916;2.926;2023-12-04T15:23:38;4.80;99.90
46319;DHT22;32042;50.916;2.926;2023-12-04T15:26:03;4.80;99.90
46319;DHT22;32042;50.916;2.926;2023-12-04T15:28:31;4.80;99.90
46319;DHT22;32042;50.916;2.926;2023-12-04T15:31:00;4.90;99.90
46319;DHT22;32042;50.916;2.926;2023-12-04T15:33:26;4.90;99.90
46319;DHT22;32042;50.916;2.926;2023-12-04T15:35:53;4.90;99.90
46319;DHT22;32042;50.916;2.926;2023-12-04T15:38:20;4.90;99.90
46319;DHT22;32042;50.916;2.926;2023-12-04T15:40:46;4.90;99.90
46319;DHT22;32042;50.916;2.926;2023-12-04T15:43:12;4.90;99.90
46319;DHT22;32042;50.916;2.926;2023-12-04T15:45:38;4.90;99.90
46319;DHT22;32042;50.916;2.926;2023-12-04T15:48:04;4.90;99.90
46319;DHT22;32042;50.916;2.926;2023-12-04T15:50:31;4.90;99.90
46319;DHT22;32042;50.916;2.926;2023-12-04T15:52:57;4.90;99.90
46319;DHT22;32042;50.916;2.926;2023-12-04T15:55:24;4.90;99.90